Time;durP1;ratioP1;P1;durP2;ratioP2;P2;SDS_P1;SDS_P2;PMS_P1;PMS_P2;Temp;Humidity;BMP_temperature;BMP_pressure;BME280_temperature;BME280_humidity;BME280_pressure;Samples;Min_cycle;Max_cycle;Signal;HPM_P1;HPM_P2
2022/09/24 00:01:30;;;;;;;21.15;18.95;;;14.40;99.90;;;;;;5064338;28;20104;-81
2022/09/24 00:04:03;;;;;;;21.02;18.90;;;14.40;99.90;;;;;;5049965;28;20016;-80
2022/09/24 00:06:32;;;;;;;20.33;18.15;;;14.50;99.90;;;;;;5060528;28;20044;-80
2022/09/24 00:08:58;;;;;;;18.30;16.50;;;14.40;99.90;;;;;;5059810;28;20025;-81
2022/09/24 00:11:26;;;;;;;18.58;16.55;;;14.40;99.90;;;;;;5057517;28;20437;-81
2022/09/24 00:13:52;;;;;;;18.52;16.55;;;14.40;99.90;;;;;;5062318;28;20021;-81
2022/09/24 00:16:20;;;;;;;18.50;16.70;;;14.40;99.90;;;;;;5057084;28;20079;-81
2022/09/24 00:18:46;;;;;;;18.17;16.15;;;14.30;99.90;;;;;;5060027;28;20021;-80
2022/09/24 00:21:18;;;;;;;19.95;17.83;;;14.30;99.90;;;;;;5058950;28;20037;-81
2022/09/24 00:23:56;;;;;;;20.50;18.50;;;14.30;99.90;;;;;;5056105;28;20029;-82
2022/09/24 00:29:08;;;;;;;19.48;17.52;;;14.40;99.90;;;;;;5050252;28;20080;-81
2022/09/24 00:31:35;;;;;;;21.67;19.38;;;14.20;99.90;;;;;;5044152;28;20037;-81
2022/09/24 00:34:00;;;;;;;21.90;19.08;;;14.30;99.90;;;;;;5058227;28;20055;-82
2022/09/24 00:36:26;;;;;;;24.67;20.38;;;14.20;99.90;;;;;;5059070;28;20025;-81
2022/09/24 00:38:54;;;;;;;21.92;19.65;;;14.20;99.90;;;;;;5057120;28;20029;-82
2022/09/24 00:41:23;;;;;;;22.10;19.75;;;14.20;99.90;;;;;;5054559;28;20030;-82
2022/09/24 00:43:49;;;;;;;21.23;18.92;;;14.10;99.90;;;;;;5050298;28;20033;-79
2022/09/24 00:46:25;;;;;;;23.35;20.95;;;14.20;99.90;;;;;;5040336;28;20485;-81
2022/09/24 00:48:57;;;;;;;23.50;21.05;;;14.10;99.90;;;;;;5037269;28;20022;-80
2022/09/24 00:51:25;;;;;;;26.45;22.13;;;14.10;99.90;;;;;;5038645;28;20420;-80
2022/09/24 00:53:58;;;;;;;23.80;20.80;;;14.10;99.90;;;;;;5048520;28;20024;-82
2022/09/24 00:56:24;;;;;;;24.70;21.33;;;14.10;99.90;;;;;;5046133;28;20033;-81
2022/09/24 00:58:53;;;;;;;24.55;20.13;;;14.10;99.90;;;;;;5050236;28;20080;-82
2022/09/24 01:01:22;;;;;;;21.33;19.02;;;14.10;99.90;;;;;;5041938;28;20045;-81
2022/09/24 01:03:49;;;;;;;20.92;18.40;;;14.00;99.90;;;;;;5062518;28;20021;-80
2022/09/24 01:06:14;;;;;;;20.95;18.65;;;14.10;99.90;;;;;;5061164;28;20041;-80
2022/09/24 01:08:41;;;;;;;21.88;19.58;;;14.10;99.90;;;;;;5059424;28;20141;-80
2022/09/24 01:11:24;;;;;;;23.08;18.00;;;14.10;99.90;;;;;;5061595;28;20071;-80
2022/09/24 01:13:59;;;;;;;19.95;17.85;;;14.10;99.90;;;;;;5060668;28;20020;-80
2022/09/24 01:16:40;;;;;;;19.77;17.70;;;14.10;99.90;;;;;;5062403;28;20021;-80
2022/09/24 01:19:24;;;;;;;22.77;18.45;;;14.10;99.90;;;;;;5060924;28;20025;-80
2022/09/24 01:21:55;;;;;;;21.48;18.52;;;14.10;99.90;;;;;;5062640;28;20072;-81
2022/09/24 01:24:42;;;;;;;;;;;14.10;99.90;;;;;;5059181;28;20033;-81
2022/09/24 01:27:16;;;;;;;20.17;18.08;;;14.00;99.90;;;;;;5059676;28;19916;-81
2022/09/24 01:29:50;;;;;;;21.23;18.92;;;14.00;99.90;;;;;;5058253;28;20044;-81
2022/09/24 01:32:26;;;;;;;21.50;19.20;;;14.10;99.90;;;;;;5046870;28;20044;-80
2022/09/24 01:34:58;;;;;;;22.20;18.42;;;14.10;99.90;;;;;;5047557;28;20070;-81
2022/09/24 01:37:26;;;;;;;22.38;19.80;;;14.10;99.90;;;;;;5059255;28;20040;-80
2022/09/24 01:39:54;;;;;;;20.70;18.50;;;14.20;99.90;;;;;;5060558;28;20028;-80
2022/09/24 01:42:22;;;;;;;21.00;18.80;;;14.10;99.90;;;;;;5060852;28;20040;-80
2022/09/24 01:44:49;;;;;;;22.48;19.00;;;14.00;99.90;;;;;;5062442;28;20075;-80
2022/09/24 01:47:25;;;;;;;19.85;17.85;;;14.00;99.90;;;;;;5063841;28;20047;-80
2022/09/24 01:49:52;;;;;;;22.40;19.67;;;14.00;99.90;;;;;;5058589;28;20028;-81
2022/09/24 01:52:22;;;;;;;24.23;20.98;;;14.00;99.90;;;;;;5058946;28;20029;-80
2022/09/24 01:54:51;;;;;;;21.42;19.10;;;13.90;99.90;;;;;;5057946;28;20435;-81
2022/09/24 01:57:22;;;;;;;26.88;21.33;;;13.90;99.90;;;;;;5046717;28;20029;-81
2022/09/24 02:00:04;;;;;;;24.85;21.25;;;13.90;99.90;;;;;;5050099;28;20025;-81
2022/09/24 02:02:39;;;;;;;23.13;20.73;;;13.80;99.90;;;;;;5045729;28;20033;-81
2022/09/24 02:05:24;;;;;;;22.88;20.50;;;13.90;99.90;;;;;;5039490;28;20105;-80
2022/09/24 02:08:03;;;;;;;22.80;20.35;;;13.90;99.90;;;;;;5037623;28;20105;-81
2022/09/24 02:10:32;;;;;;;24.92;19.83;;;13.90;99.90;;;;;;5055139;28;20021;-81
2022/09/24 02:13:04;;;;;;;22.47;20.10;;;13.80;99.90;;;;;;5055503;28;20025;-80
2022/09/24 02:15:34;;;;;;;23.58;19.48;;;13.80;99.90;;;;;;5056256;28;20049;-80
2022/09/24 02:18:07;;;;;;;22.45;20.05;;;13.80;99.90;;;;;;5055894;28;20021;-81
2022/09/24 02:20:35;;;;;;;24.23;19.95;;;13.80;99.90;;;;;;5044126;28;20570;-81
2022/09/24 02:23:02;;;;;;;26.30;20.27;;;13.80;99.90;;;;;;5061258;28;20067;-79
2022/09/24 02:25:49;;;;;;;25.17;20.48;;;13.80;99.90;;;;;;5060124;28;20112;-78
2022/09/24 02:28:16;;;;;;;22.30;19.52;;;13.70;99.90;;;;;;5058574;28;20056;-81
2022/09/24 02:30:48;;;;;;;23.45;20.90;;;13.70;99.90;;;;;;5061583;28;20017;-81
2022/09/24 02:36:02;;;;;;;24.67;20.75;;;13.80;99.90;;;;;;5057862;28;20109;-81
2022/09/24 02:38:28;;;;;;;21.88;19.58;;;13.70;99.90;;;;;;5066331;28;20033;-81
2022/09/24 02:40:54;;;;;;;23.98;21.05;;;13.70;99.90;;;;;;5068668;28;20056;-81
2022/09/24 02:43:19;;;;;;;24.48;20.80;;;13.70;99.90;;;;;;5061084;28;20143;-80
2022/09/24 02:45:48;;;;;;;24.13;21.52;;;13.70;99.90;;;;;;5059484;28;20500;-81
2022/09/24 02:48:14;;;;;;;24.48;21.00;;;13.70;99.90;;;;;;5058512;28;20033;-81
2022/09/24 02:50:41;;;;;;;25.33;20.17;;;13.70;99.90;;;;;;5069993;28;20031;-81
2022/09/24 02:53:06;;;;;;;25.52;21.88;;;13.70;99.90;;;;;;5065125;28;20530;-81
2022/09/24 02:55:32;;;;;;;25.45;21.30;;;13.70;99.90;;;;;;5057439;28;20084;-81
2022/09/24 02:57:57;;;;;;;25.20;21.27;;;13.70;99.90;;;;;;5056718;28;20013;-80
2022/09/24 03:00:23;;;;;;;27.60;21.85;;;13.70;99.90;;;;;;5057093;28;20036;-81
2022/09/24 03:02:49;;;;;;;24.45;21.25;;;13.70;99.90;;;;;;5064259;28;20047;-79
2022/09/24 03:05:17;;;;;;;28.77;22.83;;;13.70;99.90;;;;;;5064777;28;20025;-80
2022/09/24 03:07:45;;;;;;;24.27;21.05;;;13.70;99.90;;;;;;5069627;28;20032;-80
2022/09/24 03:10:11;;;;;;;25.90;21.98;;;13.80;99.90;;;;;;5070192;28;20079;-80
2022/09/24 03:12:37;;;;;;;29.23;24.33;;;13.80;99.90;;;;;;5067474;28;20037;-80
2022/09/24 03:15:03;;;;;;;29.45;24.60;;;13.70;99.90;;;;;;5077127;28;20084;-80
2022/09/24 03:17:29;;;;;;;33.58;24.95;;;13.70;99.90;;;;;;5063800;28;20089;-81
2022/09/24 03:19:58;;;;;;;33.95;25.75;;;13.70;99.90;;;;;;5060043;28;20052;-81
2022/09/24 03:22:23;;;;;;;30.92;25.73;;;13.80;99.90;;;;;;5052953;28;20489;-81
2022/09/24 03:24:49;;;;;;;32.88;26.25;;;13.60;99.90;;;;;;5056132;28;20096;-81
2022/09/24 03:27:15;;;;;;;30.05;24.05;;;13.70;99.90;;;;;;5061967;28;20053;-80
2022/09/24 03:32:25;;;;;;;31.38;25.90;;;13.70;99.90;;;;;;5063786;28;20495;-81
2022/09/24 03:34:51;;;;;;;32.90;27.20;;;13.70;99.90;;;;;;5073896;28;20025;-81
2022/09/24 03:37:20;;;;;;;32.80;25.90;;;13.70;99.90;;;;;;5074881;28;20388;-80
2022/09/24 03:39:45;;;;;;;33.30;26.95;;;13.70;99.90;;;;;;5077289;28;20025;-80
2022/09/24 03:42:11;;;;;;;32.65;27.23;;;13.70;99.90;;;;;;5066625;28;20034;-81
2022/09/24 03:44:36;;;;;;;34.50;27.42;;;13.70;99.90;;;;;;5049732;28;20067;-81
2022/09/24 03:47:02;;;;;;;32.28;25.98;;;13.70;99.90;;;;;;5059877;28;20495;-81
2022/09/24 03:49:28;;;;;;;35.95;29.92;;;13.70;99.90;;;;;;5060593;28;20083;-81
2022/09/24 03:51:54;;;;;;;36.40;28.83;;;13.80;99.90;;;;;;5059116;28;20033;-81
2022/09/24 03:54:20;;;;;;;39.13;30.50;;;13.70;99.90;;;;;;5060981;28;20025;-81
2022/09/24 03:56:45;;;;;;;35.58;29.17;;;13.70;99.90;;;;;;5062380;28;20626;-80
2022/09/24 03:59:11;;;;;;;35.17;28.88;;;13.80;99.90;;;;;;5048636;28;20047;-81
2022/09/24 04:01:37;;;;;;;40.20;31.02;;;13.70;99.90;;;;;;5060203;28;20037;-81
2022/09/24 04:04:04;;;;;;;33.13;27.95;;;13.70;99.90;;;;;;5063275;28;20040;-81
2022/09/24 04:06:30;;;;;;;37.33;29.75;;;13.80;99.90;;;;;;5048747;28;20389;-81
2022/09/24 04:08:56;;;;;;;37.53;30.25;;;13.70;99.90;;;;;;5049956;28;20026;-82
2022/09/24 04:11:23;;;;;;;37.97;30.17;;;13.80;99.90;;;;;;5062741;28;20120;-80
2022/09/24 04:13:49;;;;;;;36.95;30.20;;;13.70;99.90;;;;;;5062133;28;20021;-81
2022/09/24 04:16:15;;;;;;;38.00;30.70;;;13.70;99.90;;;;;;5040995;28;20397;-82
2022/09/24 04:18:41;;;;;;;39.60;30.35;;;13.70;99.90;;;;;;5052622;28;20040;-81
2022/09/24 04:21:07;;;;;;;38.08;30.23;;;13.80;99.90;;;;;;5061682;28;20037;-82
2022/09/24 04:23:33;;;;;;;40.80;30.77;;;13.70;99.90;;;;;;5050969;28;20113;-81
2022/09/24 04:26:00;;;;;;;36.08;29.48;;;13.70;99.90;;;;;;5057316;28;20053;-81
2022/09/24 04:28:27;;;;;;;37.60;29.77;;;13.70;99.90;;;;;;5058633;28;20105;-81
2022/09/24 04:30:52;;;;;;;38.63;30.70;;;13.70;99.90;;;;;;5059820;28;20017;-81
2022/09/24 04:33:18;;;;;;;40.38;29.85;;;13.70;99.90;;;;;;5060159;28;20490;-82
2022/09/24 04:35:44;;;;;;;37.28;30.05;;;13.60;99.90;;;;;;5057894;28;20381;-82
2022/09/24 04:38:10;;;;;;;42.25;29.52;;;13.70;99.90;;;;;;5056777;28;20025;-82
2022/09/24 04:40:36;;;;;;;38.20;29.95;;;13.70;99.90;;;;;;5058045;28;20432;-82
2022/09/24 04:43:04;;;;;;;38.33;30.35;;;13.70;99.90;;;;;;5059312;28;20057;-82
2022/09/24 04:45:31;;;;;;;34.35;29.75;;;13.70;99.90;;;;;;5048965;28;20037;-82
2022/09/24 04:47:57;;;;;;;35.35;28.85;;;13.70;99.90;;;;;;5056463;28;20026;-81
2022/09/24 04:50:28;;;;;;;36.92;30.15;;;13.70;99.90;;;;;;5055522;28;20481;-81
2022/09/24 04:52:54;;;;;;;38.72;30.10;;;13.70;99.90;;;;;;5049604;28;20033;-81
2022/09/24 04:55:21;;;;;;;37.55;29.25;;;13.70;99.90;;;;;;5057000;28;20081;-80
2022/09/24 04:57:47;;;;;;;38.42;31.00;;;13.70;99.90;;;;;;5055931;28;20773;-81
2022/09/24 05:00:16;;;;;;;36.70;30.08;;;13.80;99.90;;;;;;5057847;28;20028;-81
2022/09/24 05:02:42;;;;;;;36.70;30.33;;;13.70;99.90;;;;;;5056157;28;20087;-81
2022/09/24 05:05:12;;;;;;;38.90;30.88;;;13.70;99.90;;;;;;5052217;28;20017;-80
2022/09/24 05:07:38;;;;;;;39.23;31.57;;;13.70;99.90;;;;;;5056381;28;20118;-81
2022/09/24 05:10:05;;;;;;;35.97;30.15;;;13.70;99.90;;;;;;5057111;28;20114;-81
2022/09/24 05:12:32;;;;;;;41.15;29.92;;;13.70;99.90;;;;;;5057629;28;20024;-82
2022/09/24 05:14:58;;;;;;;37.55;30.25;;;13.80;99.90;;;;;;5056874;28;20033;-82
2022/09/24 05:17:23;;;;;;;34.15;29.00;;;13.70;99.90;;;;;;5055428;28;20040;-81
2022/09/24 05:19:49;;;;;;;39.67;31.65;;;13.80;99.90;;;;;;5055095;28;20052;-82
2022/09/24 05:22:15;;;;;;;36.30;29.50;;;13.70;99.90;;;;;;5054771;28;20396;-82
2022/09/24 05:24:43;;;;;;;39.47;32.55;;;13.70;99.90;;;;;;5055087;28;20107;-82
2022/09/24 05:27:09;;;;;;;39.17;32.00;;;13.70;99.90;;;;;;5054881;28;20048;-82
2022/09/24 05:29:39;;;;;;;41.47;33.08;;;13.80;99.90;;;;;;5055486;28;20024;-82
2022/09/24 05:32:07;;;;;;;43.25;32.92;;;13.80;99.90;;;;;;5055657;28;20051;-83
2022/09/24 05:34:33;;;;;;;40.13;32.83;;;13.80;99.90;;;;;;5053983;28;20512;-82
2022/09/24 05:36:59;;;;;;;37.75;31.23;;;13.80;99.90;;;;;;5040898;28;20029;-83
2022/09/24 05:39:25;;;;;;;44.72;32.90;;;13.80;99.90;;;;;;5054524;28;20432;-83
2022/09/24 05:41:51;;;;;;;40.30;32.65;;;13.80;99.90;;;;;;5055019;28;20061;-83
2022/09/24 05:44:20;;;;;;;39.25;32.10;;;13.80;99.90;;;;;;5058647;28;20055;-82
2022/09/24 05:46:46;;;;;;;39.22;30.80;;;13.80;99.90;;;;;;5053625;28;20055;-82
2022/09/24 05:49:12;;;;;;;38.63;29.73;;;13.80;99.90;;;;;;5054638;28;20029;-82
2022/09/24 05:51:38;;;;;;;40.45;31.83;;;13.70;99.90;;;;;;5050189;28;20083;-82
2022/09/24 05:54:03;;;;;;;42.22;33.85;;;13.80;99.90;;;;;;5043147;28;20025;-81
2022/09/24 05:56:29;;;;;;;41.10;32.85;;;13.80;99.90;;;;;;5039616;28;20029;-82
2022/09/24 05:58:54;;;;;;;45.67;33.47;;;13.80;99.90;;;;;;5040109;28;20047;-83
2022/09/24 06:01:20;;;;;;;41.10;33.10;;;13.80;99.90;;;;;;5037889;28;20041;-81
2022/09/24 06:03:45;;;;;;;41.85;34.45;;;13.80;99.90;;;;;;5037521;28;20032;-82
2022/09/24 06:06:11;;;;;;;39.97;32.80;;;13.80;99.90;;;;;;5037611;28;20057;-81
2022/09/24 06:08:37;;;;;;;38.75;30.40;;;13.80;99.90;;;;;;5038019;28;20029;-83
2022/09/24 06:11:04;;;;;;;38.95;31.17;;;13.90;99.90;;;;;;5031512;28;20125;-82
2022/09/24 06:13:32;;;;;;;42.17;31.42;;;13.80;99.90;;;;;;5041154;28;20085;-83
2022/09/24 06:16:07;;;;;;;40.05;32.15;;;13.80;99.90;;;;;;5042927;28;20131;-81
2022/09/24 06:18:34;;;;;;;40.63;31.85;;;13.80;99.90;;;;;;5037488;28;20429;-82
2022/09/24 06:21:05;;;;;;;39.72;29.23;;;13.80;99.90;;;;;;5036355;28;20016;-82
2022/09/24 06:23:31;;;;;;;36.95;29.65;;;13.80;99.90;;;;;;5038894;28;20028;-82
2022/09/24 06:25:57;;;;;;;33.42;28.25;;;13.80;99.90;;;;;;5053248;28;20016;-82
2022/09/24 06:28:26;;;;;;;35.95;27.38;;;13.90;99.90;;;;;;5047334;28;20051;-82
2022/09/24 06:30:52;;;;;;;31.20;25.88;;;13.90;99.90;;;;;;5033061;28;20025;-81
2022/09/24 06:33:19;;;;;;;32.38;28.83;;;13.80;99.90;;;;;;5049241;28;20033;-81
2022/09/24 06:35:45;;;;;;;31.75;27.35;;;13.90;99.90;;;;;;5052690;28;20029;-81
2022/09/24 06:38:13;;;;;;;30.30;25.95;;;13.80;99.90;;;;;;5050877;28;20469;-80
2022/09/24 06:40:39;;;;;;;30.27;25.50;;;13.90;99.90;;;;;;5040109;28;20026;-80
2022/09/24 06:43:06;;;;;;;29.58;25.38;;;13.90;99.90;;;;;;5035773;28;20038;-79
2022/09/24 06:45:32;;;;;;;29.55;24.70;;;13.90;99.90;;;;;;5038949;28;20064;-82
2022/09/24 06:48:00;;;;;;;28.70;24.98;;;13.90;99.90;;;;;;5049812;28;20035;-81
2022/09/24 06:50:27;;;;;;;31.90;26.85;;;13.90;99.90;;;;;;5051571;28;20175;-79
2022/09/24 06:52:53;;;;;;;30.20;24.50;;;14.00;99.90;;;;;;5039845;28;20022;-80
2022/09/24 06:55:19;;;;;;;31.15;26.02;;;14.00;99.90;;;;;;5036805;28;20029;-79
2022/09/24 06:57:45;;;;;;;26.60;23.70;;;14.00;99.90;;;;;;5041012;28;20018;-81
2022/09/24 07:00:12;;;;;;;34.60;26.15;;;14.00;99.90;;;;;;5035107;28;20022;-80
2022/09/24 07:02:39;;;;;;;27.98;24.20;;;14.00;99.90;;;;;;5037015;28;20029;-80
2022/09/24 07:05:05;;;;;;;29.17;25.05;;;14.00;99.90;;;;;;5037816;28;20076;-80
2022/09/24 07:07:34;;;;;;;30.05;25.63;;;14.00;99.90;;;;;;5047054;28;20029;-80
2022/09/24 07:10:05;;;;;;;31.17;26.98;;;14.00;99.90;;;;;;5054423;28;20032;-82
2022/09/24 07:12:32;;;;;;;35.15;28.63;;;14.10;99.90;;;;;;5055063;28;20055;-81
2022/09/24 07:14:59;;;;;;;30.98;26.52;;;14.10;99.90;;;;;;5048214;28;20028;-81
2022/09/24 07:17:25;;;;;;;29.90;25.63;;;14.20;99.90;;;;;;5046747;28;20358;-80
2022/09/24 07:19:51;;;;;;;29.95;25.77;;;14.20;99.90;;;;;;5034709;28;20069;-80
2022/09/24 07:22:17;;;;;;;33.42;28.50;;;14.20;99.90;;;;;;5044937;28;20067;-79
2022/09/24 07:24:43;;;;;;;32.72;26.27;;;14.20;99.90;;;;;;5038186;28;20052;-81
2022/09/24 07:27:09;;;;;;;35.30;29.17;;;14.20;99.90;;;;;;5050473;28;20052;-82
2022/09/24 07:29:34;;;;;;;34.72;28.45;;;14.30;99.90;;;;;;5037973;28;20375;-78
2022/09/24 07:32:02;;;;;;;34.05;28.02;;;14.30;99.90;;;;;;5051953;28;20094;-80
2022/09/24 07:34:28;;;;;;;33.92;26.50;;;14.20;99.90;;;;;;5038418;28;20397;-79
2022/09/24 07:36:55;;;;;;;36.53;28.30;;;14.20;99.90;;;;;;5036845;28;20108;-82
2022/09/24 07:39:24;;;;;;;34.92;29.13;;;14.20;99.90;;;;;;5054874;28;20029;-79
2022/09/24 07:41:51;;;;;;;34.60;28.58;;;14.20;99.90;;;;;;5056650;28;20048;-80
2022/09/24 07:44:22;;;;;;;37.17;29.17;;;14.10;99.90;;;;;;5055721;28;20031;-81
2022/09/24 07:46:48;;;;;;;39.13;30.65;;;14.20;99.90;;;;;;5046968;28;20033;-81
2022/09/24 07:49:14;;;;;;;36.40;30.00;;;14.10;99.90;;;;;;5046039;28;20048;-81
2022/09/24 07:51:40;;;;;;;41.40;32.33;;;14.10;99.90;;;;;;5048771;28;20025;-81
2022/09/24 07:54:06;;;;;;;40.75;30.95;;;14.10;99.90;;;;;;5041430;28;20025;-81
2022/09/24 07:56:32;;;;;;;46.35;33.72;;;14.00;99.90;;;;;;5042597;28;20021;-81
2022/09/24 07:58:57;;;;;;;40.50;31.63;;;14.00;99.90;;;;;;5053183;28;20175;-80
2022/09/24 08:01:25;;;;;;;41.80;32.45;;;14.00;99.90;;;;;;5039274;28;20032;-81
2022/09/24 08:03:52;;;;;;;44.47;34.03;;;14.00;99.90;;;;;;5054696;28;20443;-80
2022/09/24 08:06:19;;;;;;;42.72;33.03;;;14.00;99.90;;;;;;5049911;28;20017;-79
2022/09/24 08:08:48;;;;;;;37.00;30.27;;;13.90;99.90;;;;;;5045117;28;20041;-81
2022/09/24 08:11:15;;;;;;;39.25;29.77;;;14.00;99.90;;;;;;5051203;28;20045;-79
2022/09/24 08:13:41;;;;;;;39.05;30.27;;;14.00;99.90;;;;;;5035180;28;20030;-79
2022/09/24 08:16:07;;;;;;;37.20;29.40;;;14.00;99.90;;;;;;5046591;28;20142;-79
2022/09/24 08:18:33;;;;;;;38.95;29.42;;;14.10;99.90;;;;;;5047780;28;20377;-80
2022/09/24 08:21:06;;;;;;;42.70;29.52;;;14.10;99.90;;;;;;5054106;28;20074;-79
2022/09/24 08:23:33;;;;;;;36.17;27.67;;;14.10;99.90;;;;;;5045405;28;20060;-79
2022/09/24 08:25:59;;;;;;;35.20;27.83;;;14.10;99.90;;;;;;5036026;28;20018;-80
2022/09/24 08:28:25;;;;;;;33.33;26.80;;;14.20;99.90;;;;;;5038300;28;20397;-80
2022/09/24 08:30:50;;;;;;;28.10;22.83;;;14.10;99.90;;;;;;5052971;28;20020;-79
2022/09/24 08:33:16;;;;;;;30.75;22.98;;;14.20;99.90;;;;;;5050640;28;20025;-79
2022/09/24 08:35:41;;;;;;;27.25;23.50;;;14.20;99.90;;;;;;5050730;28;20036;-79
2022/09/24 08:38:10;;;;;;;25.55;22.33;;;14.20;99.90;;;;;;5049968;28;20076;-79
2022/09/24 08:40:45;;;;;;;26.27;21.95;;;14.20;99.90;;;;;;5049940;28;20018;-79
2022/09/24 08:43:19;;;;;;;26.33;22.30;;;14.20;99.90;;;;;;5050029;28;20033;-78
2022/09/24 08:48:48;;;;;;;21.52;19.13;;;14.20;99.90;;;;;;5036255;28;20028;-78
2022/09/24 08:51:19;;;;;;;19.67;16.98;;;14.20;99.90;;;;;;5037927;28;20115;-79
2022/09/24 08:53:58;;;;;;;19.60;17.40;;;14.20;99.90;;;;;;5035748;28;20025;-79
2022/09/24 08:56:30;;;;;;;20.52;15.68;;;14.20;99.90;;;;;;5051248;28;20108;-80
2022/09/24 08:59:18;;;;;;;19.17;14.68;;;14.20;99.90;;;;;;5037223;28;20017;-80
2022/09/24 09:01:58;;;;;;;16.25;12.98;;;14.10;99.90;;;;;;5035122;28;20033;-79
2022/09/24 09:04:48;;;;;;;15.98;12.27;;;14.10;99.90;;;;;;5033606;28;20041;-80
2022/09/24 09:07:21;;;;;;;14.03;9.33;;;14.10;99.90;;;;;;5040367;28;20035;-78
2022/09/24 09:10:02;;;;;;;7.05;5.70;;;14.10;99.90;;;;;;5044086;28;20484;-77
2022/09/24 09:12:39;;;;;;;;;;;14.10;99.90;;;;;;5042424;28;20025;-77
2022/09/24 09:15:20;;;;;;;8.45;4.45;;;14.10;99.90;;;;;;5035113;28;19912;-78
2022/09/24 09:18:03;;;;;;;13.07;4.13;;;14.00;99.90;;;;;;5034479;28;20113;-78
2022/09/24 09:20:41;;;;;;;9.73;3.92;;;14.00;99.90;;;;;;5034269;28;20152;-78
2022/09/24 09:23:30;;;;;;;11.23;3.35;;;14.00;99.90;;;;;;5034580;28;20033;-79
2022/09/24 09:25:58;;;;;;;11.43;3.80;;;14.00;99.90;;;;;;5034845;28;20148;-79
2022/09/24 09:28:28;;;;;;;5.00;2.97;;;14.00;99.90;;;;;;5044297;28;20049;-78
2022/09/24 09:31:20;;;;;;;6.80;2.20;;;14.00;99.90;;;;;;5034530;28;20036;-80
2022/09/24 09:33:55;;;;;;;12.38;2.70;;;14.00;99.90;;;;;;5033902;28;20024;-79
2022/09/24 09:36:58;;;;;;;5.95;2.40;;;14.00;99.90;;;;;;5045525;28;20026;-80
2022/09/24 09:39:43;;;;;;;13.82;4.03;;;14.00;99.90;;;;;;5038440;28;20040;-81
2022/09/24 09:42:30;;;;;;;6.72;2.05;;;14.00;99.90;;;;;;5033552;28;20418;-77
2022/09/24 09:45:00;;;;;;;6.85;2.72;;;14.00;99.90;;;;;;5034489;28;20116;-78
2022/09/24 09:47:55;;;;;;;6.25;2.35;;;14.00;99.90;;;;;;5035615;28;20021;-79
2022/09/24 09:50:28;;;;;;;8.10;2.38;;;14.10;99.90;;;;;;5035722;28;20034;-79
2022/09/24 09:52:54;;;;;;;9.50;2.08;;;14.10;99.90;;;;;;5041117;28;20029;-79
2022/09/24 09:55:28;;;;;;;5.63;1.92;;;14.20;99.90;;;;;;5037564;28;20422;-79
2022/09/24 09:58:09;;;;;;;7.15;1.70;;;14.20;99.90;;;;;;5052048;28;20049;-80
2022/09/24 10:00:35;;;;;;;;;;;14.30;99.90;;;;;;5043549;28;20466;-78
2022/09/24 10:03:02;;;;;;;5.25;1.52;;;14.30;99.90;;;;;;5044730;28;19974;-79
2022/09/24 10:05:28;;;;;;;8.30;2.38;;;14.30;99.90;;;;;;5040047;28;20528;-80
2022/09/24 10:07:58;;;;;;;7.57;2.08;;;14.30;99.90;;;;;;5052283;28;20063;-80
2022/09/24 10:10:26;;;;;;;6.38;2.47;;;14.30;99.90;;;;;;5053947;28;20086;-79
2022/09/24 10:12:54;;;;;;;6.95;1.88;;;14.40;99.90;;;;;;5053757;28;20028;-80
2022/09/24 10:15:23;;;;;;;12.40;2.22;;;14.40;99.90;;;;;;5052025;28;20025;-81
2022/09/24 10:17:52;;;;;;;6.32;2.28;;;14.40;99.90;;;;;;5041250;28;20031;-81
2022/09/24 10:20:23;;;;;;;8.43;1.80;;;14.40;99.90;;;;;;5042507;28;20017;-80
2022/09/24 10:23:05;;;;;;;14.68;2.65;;;14.40;99.90;;;;;;5059163;28;20033;-79
2022/09/24 10:25:35;;;;;;;9.82;2.13;;;14.40;99.90;;;;;;5040927;28;20033;-82
2022/09/24 10:31:02;;;;;;;4.30;2.08;;;14.40;99.90;;;;;;5054186;28;20044;-82
2022/09/24 10:33:36;;;;;;;13.35;3.25;;;14.40;99.90;;;;;;5050395;28;20046;-81
2022/09/24 10:36:06;;;;;;;8.98;2.67;;;14.40;99.90;;;;;;5035156;28;20112;-83
2022/09/24 10:38:32;;;;;;;5.05;2.10;;;14.40;99.90;;;;;;5046214;28;20021;-80
2022/09/24 10:41:00;;;;;;;4.88;2.00;;;14.30;99.90;;;;;;5034291;28;20488;-79
2022/09/24 10:43:26;;;;;;;6.75;1.80;;;14.30;99.90;;;;;;5033186;28;20029;-80
2022/09/24 10:46:20;;;;;;;12.38;2.55;;;14.20;99.90;;;;;;5032682;28;20108;-80
2022/09/24 10:48:53;;;;;;;7.38;2.05;;;14.10;99.90;;;;;;5032993;28;20551;-80
2022/09/24 10:51:27;;;;;;;9.60;2.05;;;14.10;99.90;;;;;;5037342;28;20033;-79
2022/09/24 10:53:55;;;;;;;9.55;2.92;;;14.10;99.90;;;;;;5031333;28;20029;-78
2022/09/24 10:56:35;;;;;;;12.98;3.00;;;14.10;99.90;;;;;;5031247;28;20024;-79
2022/09/24 10:59:22;;;;;;;5.40;1.90;;;14.10;99.90;;;;;;5031019;28;20123;-79
2022/09/24 11:02:11;;;;;;;4.45;2.53;;;14.10;99.90;;;;;;5031939;28;20033;-79
2022/09/24 11:04:49;;;;;;;6.57;1.92;;;14.00;99.90;;;;;;5031509;28;20021;-78
2022/09/24 11:07:37;;;;;;;14.07;3.13;;;14.00;99.90;;;;;;5036651;28;20022;-80
2022/09/24 11:10:09;;;;;;;11.27;2.65;;;14.00;99.90;;;;;;5032629;28;20034;-79
2022/09/24 11:13:14;;;;;;;10.95;2.63;;;14.00;99.90;;;;;;5033275;28;20021;-79
2022/09/24 11:16:01;;;;;;;11.40;2.75;;;14.00;99.90;;;;;;5041653;28;20362;-79
2022/09/24 11:18:45;;;;;;;12.15;3.58;;;14.00;99.90;;;;;;5046792;28;20053;-79
2022/09/24 11:21:19;;;;;;;8.43;2.28;;;14.10;99.90;;;;;;5036917;28;20029;-80
2022/09/24 11:24:33;;;;;;;6.07;2.10;;;14.00;99.90;;;;;;5036268;28;20021;-79
2022/09/24 11:27:08;;;;;;;8.15;2.05;;;14.00;99.90;;;;;;5052414;28;20060;-80
2022/09/24 11:29:39;;;;;;;13.18;3.08;;;14.00;99.90;;;;;;5040780;28;20043;-80
2022/09/24 11:32:30;;;;;;;11.57;2.60;;;14.10;99.90;;;;;;5036873;28;20079;-78
2022/09/24 11:35:34;;;;;;;8.05;2.45;;;14.10;99.90;;;;;;5037492;28;20029;-80
2022/09/24 11:38:07;;;;;;;8.75;2.53;;;14.00;99.90;;;;;;5050052;28;20032;-79
2022/09/24 11:40:54;;;;;;;10.68;2.83;;;14.00;99.90;;;;;;5040031;28;20373;-79
2022/09/24 11:43:58;;;;;;;11.38;2.95;;;14.10;99.90;;;;;;5054548;28;20100;-79
2022/09/24 11:47:03;;;;;;;10.45;3.08;;;14.10;99.90;;;;;;5044268;28;20033;-79
2022/09/24 11:49:54;;;;;;;6.55;2.95;;;14.10;99.90;;;;;;5044173;28;20426;-80
2022/09/24 11:52:37;;;;;;;11.70;2.60;;;14.10;99.90;;;;;;5042042;28;20042;-80
2022/09/24 11:55:12;;;;;;;11.68;3.00;;;14.20;99.90;;;;;;5036625;28;20041;-80
2022/09/24 11:57:47;;;;;;;19.83;3.28;;;14.20;99.90;;;;;;5036625;28;20021;-80
2022/09/24 12:00:16;;;;;;;9.65;2.95;;;14.30;99.90;;;;;;5035394;28;20059;-80
2022/09/24 12:02:55;;;;;;;22.15;4.28;;;14.40;99.90;;;;;;5035910;28;20033;-80
2022/09/24 12:05:37;;;;;;;14.38;3.10;;;14.40;99.90;;;;;;5036381;28;20499;-82
2022/09/24 12:08:27;;;;;;;22.23;3.92;;;14.40;99.90;;;;;;5055273;28;20020;-80
2022/09/24 12:11:24;;;;;;;11.35;3.03;;;14.50;99.90;;;;;;5040374;28;20044;-79
2022/09/24 12:14:02;;;;;;;12.45;3.00;;;14.40;99.90;;;;;;5058613;28;20465;-78
2022/09/24 12:16:36;;;;;;;12.68;3.60;;;14.50;99.90;;;;;;5056042;28;20070;-78
2022/09/24 12:19:22;;;;;;;15.77;3.55;;;14.40;99.90;;;;;;5056428;28;20052;-81
2022/09/24 12:21:51;;;;;;;14.88;4.43;;;14.40;99.90;;;;;;5042265;28;20029;-81
2022/09/24 12:24:38;;;;;;;11.70;3.22;;;14.50;99.90;;;;;;5057341;28;20029;-80
2022/09/24 12:27:11;;;;;;;23.52;3.63;;;14.50;99.90;;;;;;5042810;28;20063;-79
2022/09/24 12:32:56;;;;;;;14.57;2.92;;;14.50;99.90;;;;;;5043500;28;20107;-80
2022/09/24 12:35:41;;;;;;;6.50;2.33;;;14.50;99.90;;;;;;5041724;28;20366;-80
2022/09/24 12:38:16;;;;;;;13.32;2.42;;;14.60;99.90;;;;;;5055761;28;20132;-81
2022/09/24 12:40:57;;;;;;;13.82;3.30;;;14.60;99.90;;;;;;5055321;28;20021;-80
2022/09/24 12:43:36;;;;;;;16.08;3.65;;;14.60;99.90;;;;;;5054254;28;20067;-80
2022/09/24 12:46:04;;;;;;;13.90;3.47;;;14.60;99.90;;;;;;5060285;28;20032;-80
2022/09/24 12:48:34;;;;;;;7.78;1.88;;;14.70;99.90;;;;;;5057603;28;20036;-79
2022/09/24 12:51:03;;;;;;;9.63;2.63;;;14.70;99.90;;;;;;5051002;28;20052;-80
2022/09/24 12:53:34;;;;;;;10.15;2.63;;;14.80;99.90;;;;;;5048728;28;20120;-80
2022/09/24 12:56:04;;;;;;;12.80;2.33;;;14.80;99.90;;;;;;5045765;28;20017;-80
2022/09/24 12:58:40;;;;;;;9.00;2.17;;;14.70;99.90;;;;;;5050538;28;20028;-79
2022/09/24 13:01:29;;;;;;;6.80;1.83;;;14.70;99.90;;;;;;5055144;28;20029;-80
2022/09/24 13:04:27;;;;;;;13.15;2.00;;;14.60;99.90;;;;;;5052058;28;20658;-80
2022/09/24 13:06:53;;;;;;;9.77;2.15;;;14.60;99.90;;;;;;5050352;28;20029;-81
2022/09/24 13:09:32;;;;;;;9.02;2.30;;;14.60;99.90;;;;;;5052781;28;20067;-80
2022/09/24 13:12:27;;;;;;;15.10;3.45;;;14.50;99.90;;;;;;5052809;28;20060;-79